Time Latitude Longitude Accuracy (66% radius in meters) Altitude (meters) Speed (km/hour) Bearing (degrees) Battery (%) GPS flag
08:30:55 57.204510 60.120886 4.2880001068115 320 0.94999998807907 120.30000305176 80 0 delete
07:30:41 57.204502 60.120907 123.28000640869 309 0 0 80 1 delete
08:30:33 57.204510 60.120886 4.2880001068115 320 0.94999998807907 120.30000305176 80 0 delete
07:30:20 57.204502 60.120907 33.232002258301 318 0 0 80 1 delete
07:30:09 57.204502 60.120907 19.296001434326 318 0 0 80 1 delete
07:29:57 57.204502 60.120907 26.800001144409 318 0 0 80 1 delete
07:29:46 57.204502 60.120907 28.944000244141 318 0 0 80 1 delete
07:29:35 57.204502 60.120907 34.304000854492 318 0 0 80 1 delete
07:29:24 57.204503 60.120907 78.256004333496 318 0 0 80 1 delete
08:29:14 57.204510 60.120886 4.2880001068115 320 0.94999998807907 120.30000305176 80 0 delete
08:29:02 57.204510 60.120886 4.2880001068115 320 0.94999998807907 120.30000305176 80 0 delete
07:28:48 57.204503 60.120907 196.17601013184 319 0 0 80 1 delete
08:28:40 57.204510 60.120886 4.2880001068115 320 0.94999998807907 120.30000305176 80 0 delete
08:28:30 57.204510 60.120886 4.2880001068115 320 0.94999998807907 120.30000305176 80 0 delete
08:28:19 57.204510 60.120886 4.2880001068115 320 0.94999998807907 120.30000305176 80 0 delete
07:28:05 57.204504 60.120906 63.248001098633 319 0 0 80 1 delete
08:27:57 57.204510 60.120886 4.2880001068115 320 0.94999998807907 120.30000305176 80 0 delete
07:27:45 57.204504 60.120906 24.656000137329 319 0 0 80 1 delete
07:26:59 57.204505 60.120906 229.40800476074 319 0 0 80 1 delete
08:27:24 57.204510 60.120886 4.2880001068115 320 0.94999998807907 120.30000305176 80 0 delete
08:27:13 57.204510 60.120886 4.2880001068115 320 0.94999998807907 120.30000305176 80 0 delete
08:27:02 57.204510 60.120886 4.2880001068115 320 0.94999998807907 120.30000305176 80 0 delete
08:26:52 57.204510 60.120886 4.2880001068115 320 0.94999998807907 120.30000305176 80 0 delete
08:26:40 57.204510 60.120886 4.2880001068115 320 0.94999998807907 120.30000305176 80 0 delete
08:26:28 57.204510 60.120886 4.2880001068115 320 0.94999998807907 120.30000305176 80 0 delete
08:26:17 57.204510 60.120886 4.2880001068115 320 0.94999998807907 120.30000305176 80 0 delete
07:25:56 57.204506 60.120906 11.791999816895 319 0 0 80 1 delete
07:25:45 57.204515 60.120897 7.5040001869202 320 0 0 80 1 delete
07:25:34 57.204510 60.120886 4.2880001068115 320 0.94999998807907 120.30000305176 80 1 delete
07:25:26 57.204527 60.120717 3.2160000801086 319 0.86000001430511 44.700000762939 80 1 delete
07:25:22 57.204504 60.120661 3.2160000801086 321 0 0 80 1 delete
07:25:10 57.204502 60.120660 4.2880001068115 320 0 0 80 1 delete
07:24:59 57.204499 60.120658 3.2160000801086 320 0 0 80 1 delete
07:24:47 57.204498 60.120656 3.2160000801086 320 0 0 80 1 delete
07:24:37 57.204493 60.120650 4.2880001068115 319 0 0 80 1 delete
07:24:25 57.204474 60.120631 4.2880001068115 319 0.41999998688698 65 80 1 delete
07:24:22 57.204457 60.120595 4.2880001068115 319 1.0299999713898 65.300003051758 80 1 delete
07:24:14 57.204400 60.120451 4.2880001068115 317 2.0199999809265 65 80 1 delete
07:24:09 57.204368 60.120265 4.2880001068115 315 1.9700000286102 92.800003051758 80 1 delete
07:24:03 57.204381 60.120088 5.3600001335144 316 1.3400000333786 95.099998474121 80 1 delete
07:23:55 57.204370 60.119920 6.4320001602173 315 1.5099999904633 51.200000762939 80 1 delete
07:23:52 57.204353 60.119849 4.2880001068115 316 1.1399999856949 50.599998474121 80 1 delete
07:23:47 57.204342 60.119762 5.3600001335144 316 1.1200000047684 71.199996948242 80 1 delete
07:23:42 57.204333 60.119648 4.2880001068115 319 1.0199999809265 49 80 1 delete
07:23:39 57.204327 60.119580 4.2880001068115 319 1.2799999713898 47.099998474121 80 1 delete
07:23:31 57.204277 60.119432 6.4320001602173 325 1.5900000333786 48.299999237061 80 1 delete
07:23:21 57.204220 60.119290 5.3600001335144 322 0.9200000166893 46 80 1 delete
07:23:13 57.204172 60.119150 6.4320001602173 321 1.25 19.299999237061 80 1 delete
07:23:10 57.204131 60.119118 6.4320001602173 318 1.039999961853 22.700000762939 80 1 delete
07:23:04 57.204086 60.119069 6.4320001602173 323 0.87000000476837 39.099998474121 80 1 delete